Startpagina
METAR-TAF:

METAR-TAF

Vliegvelden :

Mullan Pass Vor, Idaho, Verenigde Staten

breedte: 47-27-15N, lengte: 115-40-11W, hoogte: 1829 m

Actueel weer

Dit bericht is 11 minuten geleden gemaakt, om 11:06 UTC
Weinig wind
Temperatuur -3°C
Vochtigheid 93%
Druk 1012 hPa
Zicht: 2.0 km
Geheel bewolkt op 100 ft
lichte sneeuw, nevel

METAR: KMLP 201106Z AUTO 00000KT 1 1/4SM -SN BR OVC001 M03/M04 A2989 RMK AO2 P0000 T10281039

Tijdstip: 03:17 (11:17 UTC)


TAF: ontbreekt

Waarnemingen en weersverwachtingen van meer dan 4000 vliegvelden (METAR en TAF).

De beschikbare stations zijn de gele en rode punten op de kaart.

Ga met uw muis naar het station om de naam te zien.

Klik dan om waarnemingen en weersverwachtingen te zien.

kaart wijzigen: klik op de groene knoppen met een zwart kruis om in te zoomen, op de groene knop met een streepje om uit te zoomen of op de groene pijlen voor aangrenzende kaarten.


METAR-TAF: